createdAt,value
2022-10-31T00:19:59.250Z,82.74
2022-10-31T00:49:59.252Z,82.88
2022-10-31T01:19:59.253Z,82.92
2022-10-31T01:49:59.258Z,83.01
2022-10-31T02:19:59.261Z,83.21
2022-10-31T02:49:59.267Z,83.36
2022-10-31T03:19:59.268Z,83.42
2022-10-31T03:49:59.266Z,83.57
2022-10-31T04:19:59.273Z,83.73
2022-10-31T04:49:59.296Z,84.04
2022-10-31T05:19:59.295Z,83.95
2022-10-31T05:49:59.292Z,84.05
2022-10-31T06:19:59.310Z,83.97
2022-10-31T06:49:59.312Z,84.29
2022-10-31T07:19:59.343Z,84.4
2022-10-31T07:49:59.320Z,83.92
2022-10-31T08:19:59.333Z,83.92
2022-10-31T08:49:59.338Z,84.3
2022-10-31T09:19:59.362Z,84.03
2022-10-31T09:49:59.413Z,83.79
2022-10-31T10:19:59.363Z,82.99
2022-10-31T10:49:59.350Z,82.3
2022-10-31T11:19:59.397Z,81.47
2022-10-31T11:49:59.347Z,81.05
2022-10-31T12:19:59.361Z,79.89
2022-10-31T12:49:59.361Z,79.35
2022-10-31T13:19:59.352Z,78.88
2022-10-31T13:49:59.376Z,79.12
2022-10-31T14:19:59.366Z,79.54
2022-10-31T14:49:59.367Z,79.57
2022-10-31T15:19:59.386Z,79.9
2022-10-31T15:49:59.374Z,80.61
2022-10-31T16:19:59.371Z,80.96
2022-10-31T16:49:59.462Z,81.48
2022-10-31T17:19:59.379Z,81.97
2022-10-31T17:49:59.388Z,82.67
2022-10-31T18:19:59.395Z,82.83
2022-10-31T18:49:59.393Z,83.24
2022-10-31T19:19:59.406Z,83.56
2022-10-31T19:49:59.415Z,83.74
2022-10-31T20:19:59.410Z,84.02
2022-10-31T20:49:59.404Z,84.47
2022-10-31T21:19:59.410Z,84.44
2022-10-31T21:49:59.417Z,84.66
2022-10-31T22:19:59.428Z,84.97
2022-10-31T22:49:59.419Z,85.11
2022-10-31T23:19:59.430Z,85.4
2022-10-31T23:49:59.447Z,85.4
